Time;durP1;ratioP1;P1;durP2;ratioP2;P2;SDS_P1;SDS_P2;PMS_P1;PMS_P2;Temp;Humidity;BMP_temperature;BMP_pressure;BME280_temperature;BME280_humidity;BME280_pressure;Samples;Min_cycle;Max_cycle;Signal;HPM_P1;HPM_P2
2023/03/23 00:01:36;;;;;;;;;;;;;;;7.32;100.00;96191.44;5005732;28;19918;-70
2023/03/23 00:04:02;;;;;;;;;;;;;;;7.28;100.00;96194.09;5003687;28;19925;-68
2023/03/23 00:06:34;;;;;;;;;;;;;;;7.18;100.00;96198.16;5000215;28;20032;-71
2023/03/23 00:09:03;;;;;;;;;;;;;;;7.16;100.00;96192.28;4970929;28;19944;-73
2023/03/23 00:11:29;;;;;;;;;;;;;;;7.14;100.00;96188.34;5001105;28;20016;-71
2023/03/23 00:13:56;;;;;;;;;;;;;;;7.14;100.00;96191.06;5004562;28;20584;-72
2023/03/23 00:16:30;;;;;;;;;;;;;;;7.00;100.00;96197.00;5000419;28;20401;-70
2023/03/23 00:18:56;;;;;;;;;;;;;;;7.03;100.00;96194.34;4998603;28;20004;-70
2023/03/23 00:21:33;;;;;;;;;;;;;;;7.06;100.00;96204.53;4998936;28;21429;-72
2023/03/23 00:24:19;;;;;;;;;;;;;;;7.16;100.00;96203.19;5005061;28;20378;-71
2023/03/23 00:26:45;;;;;;;;;;;;;;;7.36;100.00;96195.81;5001386;28;19926;-71
2023/03/23 00:29:15;;;;;;;;;;;;;;;7.44;100.00;96200.28;4999978;28;19917;-72
2023/03/23 00:31:41;;;;;;;;;;;;;;;7.36;100.00;96195.81;5024374;28;19917;-73
2023/03/23 00:34:06;;;;;;;;;;;;;;;7.28;100.00;96192.16;4992243;28;20378;-70
2023/03/23 00:36:34;;;;;;;;;;;;;;;7.27;100.00;96192.50;5003557;28;19917;-70
2023/03/23 00:39:00;;;;;;;;;;;;;;;7.13;100.00;96197.66;5004952;28;19918;-70
2023/03/23 00:41:26;;;;;;;;;;;;;;;7.25;100.00;96205.72;5019671;28;19975;-71
2023/03/23 00:43:52;;;;;;;;;;;;;;;7.31;100.00;96190.66;5009720;28;20020;-71
2023/03/23 00:46:20;;;;;;;;;;;;;;;7.30;100.00;96197.25;5000806;28;19965;-72
2023/03/23 00:48:46;;;;;;;;;;;;;;;7.23;100.00;96184.25;5018163;28;20016;-70
2023/03/23 00:51:11;;;;;;;;;;;;;;;7.23;100.00;96195.16;5001486;28;20016;-70
2023/03/23 00:53:38;;;;;;;;;;;;;;;7.17;100.00;96193.88;5003637;28;19925;-70
2023/03/23 00:56:03;;;;;;;;;;;;;;;7.17;100.00;96188.44;5020455;28;20016;-68
2023/03/23 00:58:28;;;;;;;;;;;;;;;7.18;100.00;96187.25;5015569;28;19956;-72
2023/03/23 01:00:53;;;;;;;;;;;;;;;7.06;100.00;96188.19;5023976;28;19974;-71
2023/03/23 01:03:19;;;;;;;;;;;;;;;6.69;100.00;96180.38;5017449;28;20011;-71
2023/03/23 01:05:46;;;;;;;;;;;;;;;6.42;100.00;96181.28;5022528;28;20412;-71
2023/03/23 01:08:12;;;;;;;;;;;;;;;6.34;100.00;96176.81;5017437;28;19933;-72
2023/03/23 01:10:38;;;;;;;;;;;;;;;6.23;100.00;96174.63;5023308;28;20274;-71
2023/03/23 01:13:04;;;;;;;;;;;;;;;6.00;100.00;96174.44;5020275;28;19932;-70
2023/03/23 01:15:29;;;;;;;;;;;;;;;5.91;100.00;96173.78;5023672;28;20350;-71
2023/03/23 01:17:55;;;;;;;;;;;;;;;5.85;100.00;96165.13;5024772;28;19921;-71
2023/03/23 01:20:21;;;;;;;;;;;;;;;5.87;100.00;96165.53;5020573;28;19921;-69
2023/03/23 01:22:46;;;;;;;;;;;;;;;5.93;100.00;96175.00;5022848;28;20393;-71
2023/03/23 01:25:12;;;;;;;;;;;;;;;6.10;100.00;96164.97;5018779;28;19963;-70
2023/03/23 01:27:38;;;;;;;;;;;;;;;6.17;100.00;96162.41;5019633;28;19929;-70
2023/03/23 01:30:05;;;;;;;;;;;;;;;6.23;100.00;96150.16;5020097;28;19952;-68
2023/03/23 01:32:30;;;;;;;;;;;;;;;6.25;100.00;96155.25;5023704;28;19917;-71
2023/03/23 01:34:56;;;;;;;;;;;;;;;6.32;100.00;96147.25;5023648;28;19921;-72
2023/03/23 01:37:26;;;;;;;;;;;;;;;6.53;100.00;96157.06;5018610;28;20002;-69
2023/03/23 01:39:55;;;;;;;;;;;;;;;6.81;100.00;96143.31;5022935;28;20374;-68
2023/03/23 01:42:24;;;;;;;;;;;;;;;6.78;100.00;96139.34;5004646;28;19917;-70
2023/03/23 01:44:49;;;;;;;;;;;;;;;6.70;100.00;96138.41;5002791;28;19921;-72
2023/03/23 01:47:15;;;;;;;;;;;;;;;6.62;100.00;96139.38;5003973;28;20289;-71
2023/03/23 01:49:43;;;;;;;;;;;;;;;6.63;100.00;96140.19;5008640;28;20255;-71
2023/03/23 01:52:17;;;;;;;;;;;;;;;6.84;100.00;96142.59;4997564;28;19960;-71
2023/03/23 01:54:44;;;;;;;;;;;;;;;6.93;100.00;96150.56;5011561;28;19917;-70
2023/03/23 01:57:13;;;;;;;;;;;;;;;6.94;100.00;96150.19;5006186;28;19961;-69
2023/03/23 01:59:40;;;;;;;;;;;;;;;6.86;100.00;96146.53;5015316;28;19931;-70
2023/03/23 02:02:05;;;;;;;;;;;;;;;6.90;100.00;96141.19;5018234;28;19921;-70
2023/03/23 02:04:31;;;;;;;;;;;;;;;6.89;100.00;96148.53;5022866;28;20339;-71
2023/03/23 02:06:57;;;;;;;;;;;;;;;6.69;100.00;96153.16;5022268;28;19932;-70
2023/03/23 02:09:25;;;;;;;;;;;;;;;6.60;100.00;96149.06;5018128;28;20180;-72
2023/03/23 02:11:50;;;;;;;;;;;;;;;6.68;100.00;96153.50;5021751;28;19925;-69
2023/03/23 02:14:17;;;;;;;;;;;;;;;6.94;100.00;96152.16;5017653;28;19921;-70
2023/03/23 02:16:49;;;;;;;;;;;;;;;6.84;100.00;96157.00;5023041;28;19917;-71
2023/03/23 02:19:33;;;;;;;;;;;;;;;6.88;100.00;96162.53;5022618;28;19921;-72
2023/03/23 02:22:12;;;;;;;;;;;;;;;6.97;100.00;96171.28;5024409;28;19932;-69
2023/03/23 02:24:37;;;;;;;;;;;;;;;7.04;100.00;96168.72;5022271;28;19918;-71
2023/03/23 02:27:08;;;;;;;;;;;;;;;7.25;100.00;96164.84;5017519;28;19921;-68
2023/03/23 02:29:33;;;;;;;;;;;;;;;7.18;100.00;96162.75;5021675;28;20312;-70
2023/03/23 02:31:59;;;;;;;;;;;;;;;7.14;100.00;96156.44;5023630;28;19921;-71
2023/03/23 02:34:29;;;;;;;;;;;;;;;6.82;100.00;96156.53;5017468;28;19924;-69
2023/03/23 02:37:05;;;;;;;;;;;;;;;6.54;100.00;96158.66;5022628;28;20381;-70
2023/03/23 02:39:34;;;;;;;;;;;;;;;6.45;100.00;96156.09;5020111;28;20001;-70
2023/03/23 02:42:05;;;;;;;;;;;;;;;6.50;100.00;96153.13;5022490;28;20055;-70
2023/03/23 02:44:31;;;;;;;;;;;;;;;6.57;100.00;96157.91;5021721;28;19920;-70
2023/03/23 02:46:59;;;;;;;;;;;;;;;6.63;100.00;96143.69;5022870;28;19921;-70
2023/03/23 02:49:25;;;;;;;;;;;;;;;6.67;100.00;96151.94;5008803;28;20046;-72
2023/03/23 02:51:51;;;;;;;;;;;;;;;6.70;100.00;96151.25;5024015;28;20019;-71
2023/03/23 02:54:18;;;;;;;;;;;;;;;6.87;100.00;96153.56;5020468;28;19917;-70
2023/03/23 02:56:44;;;;;;;;;;;;;;;6.98;100.00;96153.78;5025441;28;19917;-70
2023/03/23 02:59:09;;;;;;;;;;;;;;;7.07;100.00;96156.31;5012483;28;19921;-71
2023/03/23 03:01:36;;;;;;;;;;;;;;;7.15;100.00;96159.97;5026008;28;19935;-70
2023/03/23 03:04:22;;;;;;;;;;;;;;;7.26;100.00;96164.50;5025667;28;20325;-68
2023/03/23 03:06:59;;;;;;;;;;;;;;;7.43;100.00;96184.28;5026239;28;19952;-69
2023/03/23 03:09:28;;;;;;;;;;;;;;;7.56;100.00;96174.81;5020855;28;20015;-69
2023/03/23 03:11:58;;;;;;;;;;;;;;;7.56;100.00;96180.28;5026522;28;20016;-68
2023/03/23 03:14:37;;;;;;;;;;;;;;;7.50;100.00;96181.69;5002888;28;20122;-68
2023/03/23 03:17:10;;;;;;;;;;;;;;;7.08;100.00;96182.41;5025090;28;20338;-68
2023/03/23 03:19:38;;;;;;;;;;;;;;;7.08;100.00;96185.91;5022929;28;20376;-69
2023/03/23 03:22:04;;;;;;;;;;;;;;;7.10;100.00;96182.06;5022383;28;20381;-67
2023/03/23 03:24:31;;;;;;;;;;;;;;;7.30;100.00;96202.69;5024002;28;19917;-70
2023/03/23 03:26:58;;;;;;;;;;;;;;;7.35;100.00;96196.19;5025609;28;19917;-68
2023/03/23 03:29:26;;;;;;;;;;;;;;;7.29;100.00;96201.13;5020063;28;20088;-69
2023/03/23 03:31:55;;;;;;;;;;;;;;;7.44;100.00;96205.72;5025318;28;19924;-70
2023/03/23 03:34:21;;;;;;;;;;;;;;;7.51;100.00;96205.09;5019389;28;20405;-69
2023/03/23 03:36:47;;;;;;;;;;;;;;;7.53;100.00;96178.25;5025055;28;19917;-68
2023/03/23 03:39:15;;;;;;;;;;;;;;;6.86;100.00;96160.16;5020409;28;19932;-68
2023/03/23 03:41:41;;;;;;;;;;;;;;;6.56;100.00;96170.75;5024683;28;20014;-68
2023/03/23 03:44:06;;;;;;;;;;;;;;;6.70;100.00;96167.56;5018677;28;19957;-70
2023/03/23 03:46:32;;;;;;;;;;;;;;;6.59;100.00;96152.91;5024110;28;20293;-70
2023/03/23 03:48:58;;;;;;;;;;;;;;;6.66;100.00;96136.75;5015506;28;19922;-70
2023/03/23 03:51:24;;;;;;;;;;;;;;;6.80;100.00;96128.13;5020079;28;20430;-72
2023/03/23 03:53:50;;;;;;;;;;;;;;;7.12;100.00;96133.47;5024664;28;19924;-70
2023/03/23 03:56:15;;;;;;;;;;;;;;;7.38;100.00;96117.25;4993542;28;19918;-69
2023/03/23 03:58:42;;;;;;;;;;;;;;;7.38;100.00;96106.38;5019087;28;20400;-70
2023/03/23 04:01:09;;;;;;;;;;;;;;;7.44;100.00;96121.25;5018541;28;19943;-68
2023/03/23 04:03:35;;;;;;;;;;;;;;;7.55;100.00;96121.47;5023960;28;19917;-70
2023/03/23 04:06:00;;;;;;;;;;;;;;;7.63;100.00;96123.19;5024378;28;19971;-71
2023/03/23 04:08:26;;;;;;;;;;;;;;;7.72;100.00;96119.41;5020508;28;19921;-71
2023/03/23 04:10:52;;;;;;;;;;;;;;;7.99;100.00;96125.72;5024556;28;19921;-70
2023/03/23 04:13:17;;;;;;;;;;;;;;;8.38;100.00;96122.88;5019704;28;20009;-71
2023/03/23 04:15:46;;;;;;;;;;;;;;;8.46;100.00;96132.75;5024170;28;19963;-70
2023/03/23 04:18:11;;;;;;;;;;;;;;;8.48;100.00;96127.75;5020574;28;19917;-69
2023/03/23 04:20:37;;;;;;;;;;;;;;;8.40;100.00;96126.00;5025434;28;20353;-71
2023/03/23 04:23:02;;;;;;;;;;;;;;;8.48;100.00;96125.00;5022406;28;19924;-69
2023/03/23 04:25:28;;;;;;;;;;;;;;;8.51;100.00;96109.84;5020519;28;19917;-72
2023/03/23 04:27:53;;;;;;;;;;;;;;;8.54;100.00;96114.56;5023965;28;20020;-72
2023/03/23 04:30:24;;;;;;;;;;;;;;;8.45;100.00;96101.19;5019091;28;19918;-71
2023/03/23 04:32:50;;;;;;;;;;;;;;;8.36;100.00;96101.41;5007078;28;19925;-72
2023/03/23 04:35:16;;;;;;;;;;;;;;;8.21;100.00;96094.94;5018132;28;19921;-71
2023/03/23 04:37:42;;;;;;;;;;;;;;;8.27;100.00;96086.44;5023564;28;19917;-71
2023/03/23 04:40:14;;;;;;;;;;;;;;;8.16;100.00;96086.28;5019119;28;20467;-69
2023/03/23 04:42:39;;;;;;;;;;;;;;;8.12;100.00;96094.41;5023685;28;19924;-70
2023/03/23 04:45:07;;;;;;;;;;;;;;;8.32;100.00;96094.31;5018537;28;19917;-69
2023/03/23 04:47:33;;;;;;;;;;;;;;;8.52;100.00;96103.22;5022870;28;19961;-71
2023/03/23 04:49:59;;;;;;;;;;;;;;;8.60;100.00;96096.69;5023910;28;20007;-70
2023/03/23 04:52:25;;;;;;;;;;;;;;;8.71;100.00;96100.38;5018668;28;20228;-71
2023/03/23 04:54:51;;;;;;;;;;;;;;;8.77;100.00;96106.31;5019752;28;20317;-74
2023/03/23 04:57:16;;;;;;;;;;;;;;;8.77;100.00;96104.38;5010615;28;19921;-69
2023/03/23 04:59:43;;;;;;;;;;;;;;;8.70;100.00;96101.53;5004717;28;19975;-69
2023/03/23 05:02:08;;;;;;;;;;;;;;;8.67;100.00;96099.53;5018365;28;19917;-69
2023/03/23 05:04:34;;;;;;;;;;;;;;;8.66;100.00;96103.44;5024184;28;19936;-70
2023/03/23 05:06:59;;;;;;;;;;;;;;;8.65;100.00;96095.63;5023396;28;19924;-71
2023/03/23 05:09:25;;;;;;;;;;;;;;;8.54;100.00;96088.06;5017196;28;19971;-70
2023/03/23 05:11:50;;;;;;;;;;;;;;;8.57;100.00;96094.69;5022645;28;19917;-68
2023/03/23 05:14:16;;;;;;;;;;;;;;;8.57;100.00;96089.25;5019186;28;19921;-71
2023/03/23 05:16:41;;;;;;;;;;;;;;;8.54;100.00;96077.13;5023073;28;19917;-69
2023/03/23 05:19:07;;;;;;;;;;;;;;;8.54;100.00;96068.94;5017147;28;20306;-67
2023/03/23 05:21:34;;;;;;;;;;;;;;;8.62;100.00;96075.28;5004910;28;19921;-70
2023/03/23 05:24:00;;;;;;;;;;;;;;;8.59;100.00;96079.53;5023267;28;20317;-70
2023/03/23 05:26:28;;;;;;;;;;;;;;;8.57;100.00;96086.50;5017761;28;20295;-69
2023/03/23 05:28:54;;;;;;;;;;;;;;;8.55;100.00;96081.44;5023950;28;19925;-68
2023/03/23 05:31:19;;;;;;;;;;;;;;;8.66;100.00;96087.06;5020749;28;20366;-69
2023/03/23 05:33:45;;;;;;;;;;;;;;;8.80;100.00;96089.97;5022462;28;19917;-68
2023/03/23 05:36:13;;;;;;;;;;;;;;;8.87;100.00;96089.28;5018581;28;20493;-68
2023/03/23 05:38:40;;;;;;;;;;;;;;;8.91;100.00;96092.03;5022669;28;19983;-68
2023/03/23 05:41:06;;;;;;;;;;;;;;;8.93;100.00;96096.00;5017972;28;19924;-68
2023/03/23 05:43:31;;;;;;;;;;;;;;;8.88;100.00;96093.59;5022269;28;19924;-67
2023/03/23 05:45:57;;;;;;;;;;;;;;;8.89;100.00;96094.38;5004568;28;19917;-69
2023/03/23 05:48:22;;;;;;;;;;;;;;;9.12;100.00;96094.28;5015117;28;19972;-68
2023/03/23 05:50:47;;;;;;;;;;;;;;;9.15;100.00;96096.25;5002865;28;19918;-67
2023/03/23 05:53:13;;;;;;;;;;;;;;;9.22;100.00;96093.63;4996732;28;19924;-67
2023/03/23 05:55:38;;;;;;;;;;;;;;;9.17;100.00;96102.16;5004511;28;19925;-68
2023/03/23 05:58:03;;;;;;;;;;;;;;;9.07;100.00;96100.84;5012151;28;20365;-69
2023/03/23 06:00:30;;;;;;;;;;;;;;;9.29;100.00;96106.56;5020793;28;19917;-70
2023/03/23 06:02:56;;;;;;;;;;;;;;;9.49;100.00;96094.31;5022255;28;19948;-70
2023/03/23 06:05:22;;;;;;;;;;;;;;;9.63;100.00;96106.53;5016368;28;19998;-67
2023/03/23 06:07:47;;;;;;;;;;;;;;;9.76;100.00;96108.66;5022005;28;19925;-69
2023/03/23 06:10:13;;;;;;;;;;;;;;;9.88;100.00;96104.84;5016292;28;19917;-70
2023/03/23 06:12:39;;;;;;;;;;;;;;;10.02;100.00;96108.88;5022174;28;20553;-73
2023/03/23 06:15:06;;;;;;;;;;;;;;;10.10;100.00;96125.00;5016774;28;19921;-69
2023/03/23 06:17:32;;;;;;;;;;;;;;;10.17;98.71;96120.75;5023321;28;19939;-73
2023/03/23 06:19:57;;;;;;;;;;;;;;;10.11;99.23;96123.03;5020896;28;20386;-72
2023/03/23 06:22:22;;;;;;;;;;;;;;;10.04;100.00;96133.91;5017126;28;20389;-71
2023/03/23 06:24:48;;;;;;;;;;;;;;;10.09;99.20;96136.31;5024548;28;20345;-70
2023/03/23 06:27:15;;;;;;;;;;;;;;;10.07;99.55;96138.66;5016653;28;20004;-73
2023/03/23 06:29:40;;;;;;;;;;;;;;;10.04;99.84;96133.91;5021191;28;19918;-73
2023/03/23 06:32:05;;;;;;;;;;;;;;;10.01;100.00;96134.66;5017507;28;19921;-71
2023/03/23 06:34:32;;;;;;;;;;;;;;;9.98;99.40;96127.22;5022019;28;19921;-71
2023/03/23 06:36:57;;;;;;;;;;;;;;;9.33;100.00;96130.06;5018470;28;19917;-72
2023/03/23 06:39:23;;;;;;;;;;;;;;;8.98;100.00;96124.91;5018350;28;19971;-70
2023/03/23 06:41:49;;;;;;;;;;;;;;;8.99;100.00;96126.50;5021094;28;20281;-71
2023/03/23 06:44:14;;;;;;;;;;;;;;;8.99;100.00;96126.50;5017241;28;19921;-70
2023/03/23 06:46:41;;;;;;;;;;;;;;;9.03;100.00;96121.88;5021481;28;19917;-69
2023/03/23 06:49:06;;;;;;;;;;;;;;;8.69;100.00;96121.78;4997372;28;20011;-69
2023/03/23 06:51:31;;;;;;;;;;;;;;;8.78;100.00;96125.03;5002245;28;20390;-69
2023/03/23 06:53:57;;;;;;;;;;;;;;;8.85;100.00;96118.91;5009527;28;20301;-69
2023/03/23 06:56:23;;;;;;;;;;;;;;;8.90;100.00;96115.06;5006151;28;20739;-70
2023/03/23 06:58:48;;;;;;;;;;;;;;;8.96;100.00;96125.28;4992048;28;19928;-71
2023/03/23 07:01:14;;;;;;;;;;;;;;;9.28;100.00;96121.41;5004831;28;19921;-70
2023/03/23 07:03:40;;;;;;;;;;;;;;;9.52;100.00;96120.09;5013729;28;19988;-70
2023/03/23 07:06:06;;;;;;;;;;;;;;;9.89;100.00;96119.31;5007706;28;20012;-69
2023/03/23 07:08:32;;;;;;;;;;;;;;;10.06;97.86;96115.94;5019839;28;19921;-69
2023/03/23 07:10:57;;;;;;;;;;;;;;;10.22;96.39;96120.41;4997302;28;19925;-68
2023/03/23 07:13:23;;;;;;;;;;;;;;;10.35;96.43;96115.44;5006823;28;20538;-69
2023/03/23 07:15:48;;;;;;;;;;;;;;;10.54;96.23;96119.91;5002175;28;20293;-69
2023/03/23 07:18:14;;;;;;;;;;;;;;;10.74;95.07;96123.16;4995919;28;19970;-70
2023/03/23 07:20:40;;;;;;;;;;;;;;;11.00;94.79;96114.72;5012265;28;19940;-69
2023/03/23 07:23:06;;;;;;;;;;;;;;;11.30;93.28;96121.88;5004434;28;19925;-69
2023/03/23 07:25:32;;;;;;;;;;;;;;;11.80;84.67;96108.31;5025050;28;19917;-70
2023/03/23 07:27:58;;;;;;;;;;;;;;;11.80;85.93;96115.78;5014560;28;19921;-69
2023/03/23 07:30:23;;;;;;;;;;;;;;;11.89;88.89;96121.66;5018973;28;20552;-68
2023/03/23 07:32:48;;;;;;;;;;;;;;;12.43;92.00;96133.50;5014083;28;19957;-69
2023/03/23 07:35:14;;;;;;;;;;;;;;;12.56;90.36;96141.34;5009556;28;19925;-69
2023/03/23 07:37:39;;;;;;;;;;;;;;;12.66;88.91;96140.56;5017562;28;19926;-70
2023/03/23 07:40:08;;;;;;;;;;;;;;;12.78;87.00;96139.38;5010737;28;19961;-71
2023/03/23 07:42:33;;;;;;;;;;;;;;;12.90;85.64;96149.97;5001357;28;19988;-71
2023/03/23 07:44:59;;;;;;;;;;;;;;;12.89;84.35;96158.59;5006718;28;20672;-72
2023/03/23 07:47:24;;;;;;;;;;;;;;;13.05;84.72;96158.19;5003860;28;20279;-71
2023/03/23 07:49:49;;;;;;;;;;;;;;;13.21;83.33;96161.28;5019944;28;20091;-69
2023/03/23 07:52:15;;;;;;;;;;;;;;;13.43;81.30;96158.50;5002714;28;19944;-69
2023/03/23 07:54:40;;;;;;;;;;;;;;;13.69;78.17;96163.50;5014929;28;19917;-69
2023/03/23 07:57:06;;;;;;;;;;;;;;;14.00;76.12;96160.97;5011138;28;19917;-69
2023/03/23 07:59:31;;;;;;;;;;;;;;;14.36;73.45;96157.22;5012303;28;19925;-69
2023/03/23 08:01:57;;;;;;;;;;;;;;;14.78;68.92;96155.34;5006019;28;19917;-70
2023/03/23 08:04:23;;;;;;;;;;;;;;;15.05;65.55;96163.75;5000566;28;19984;-70
2023/03/23 08:06:49;;;;;;;;;;;;;;;15.22;64.09;96170.28;5004396;28;19917;-70
2023/03/23 08:09:15;;;;;;;;;;;;;;;15.39;62.73;96174.03;5009535;28;19929;-70
2023/03/23 08:11:41;;;;;;;;;;;;;;;15.49;61.78;96179.44;5023977;28;19928;-70
2023/03/23 08:14:06;;;;;;;;;;;;;;;15.56;61.04;96181.34;5019672;28;19921;-70
2023/03/23 08:16:32;;;;;;;;;;;;;;;15.73;60.39;96185.06;5026067;28;20306;-71
2023/03/23 08:18:58;;;;;;;;;;;;;;;15.42;61.33;96184.25;5006992;28;20388;-70
2023/03/23 08:21:23;;;;;;;;;;;;;;;15.79;61.15;96191.75;5003001;28;19913;-70
2023/03/23 08:23:49;;;;;;;;;;;;;;;15.99;59.89;96193.84;5026278;28;19928;-71
2023/03/23 08:26:15;;;;;;;;;;;;;;;16.00;59.77;96196.19;5020978;28;20297;-70
2023/03/23 08:28:40;;;;;;;;;;;;;;;15.79;61.01;96186.22;5024880;28;20360;-70
2023/03/23 08:31:07;;;;;;;;;;;;;;;15.87;59.99;96192.44;5019338;28;20003;-71
2023/03/23 08:33:33;;;;;;;;;;;;;;;15.77;60.57;96193.34;5024061;28;19974;-71
2023/03/23 08:35:58;;;;;;;;;;;;;;;15.61;60.95;96200.22;5023771;28;19924;-70
2023/03/23 08:38:24;;;;;;;;;;;;;;;15.64;60.95;96204.13;5001549;28;20314;-71
2023/03/23 08:40:50;;;;;;;;;;;;;;;15.68;62.25;96197.38;5023878;28;19983;-71
2023/03/23 08:43:15;;;;;;;;;;;;;;;15.67;63.12;96208.81;5019659;28;19917;-71
2023/03/23 08:45:41;;;;;;;;;;;;;;;15.52;63.17;96205.44;5023697;28;19924;-71
2023/03/23 08:48:07;;;;;;;;;;;;;;;15.52;61.65;96207.41;4985762;28;20422;-70
2023/03/23 08:50:33;;;;;;;;;;;;;;;15.53;60.50;96211.75;5005896;28;19940;-69
2023/03/23 08:52:58;;;;;;;;;;;;;;;15.39;60.22;96212.66;4988342;28;19917;-70
2023/03/23 08:55:24;;;;;;;;;;;;;;;15.41;59.30;96213.84;5016357;28;20618;-71
2023/03/23 08:57:49;;;;;;;;;;;;;;;15.26;60.63;96220.69;5025646;28;20445;-69
2023/03/23 09:00:19;;;;;;;;;;;;;;;14.82;61.00;96213.97;5018020;28;19976;-70
2023/03/23 09:02:48;;;;;;;;;;;;;;;14.84;62.17;96217.13;5005296;28;20027;-70
2023/03/23 09:05:15;;;;;;;;;;;;;;;14.95;62.19;96217.03;5017754;28;20018;-71
2023/03/23 09:07:41;;;;;;;;;;;;;;;15.03;60.99;96221.28;5024304;28;19928;-70
2023/03/23 09:10:07;;;;;;;;;;;;;;;15.09;62.66;96228.72;5002656;28;19917;-70
2023/03/23 09:12:33;;;;;;;;;;;;;;;15.23;62.95;96219.53;5026699;28;19918;-70
2023/03/23 09:14:58;;;;;;;;;;;;;;;15.18;63.21;96228.25;5022838;28;19929;-71
2023/03/23 09:17:23;;;;;;;;;;;;;;;15.43;59.92;96230.78;5006837;28;19917;-70
2023/03/23 09:19:48;;;;;;;;;;;;;;;15.58;59.64;96230.63;5024849;28;19921;-70
2023/03/23 09:22:15;;;;;;;;;;;;;;;15.59;60.14;96229.41;5019789;28;19925;-70
2023/03/23 09:24:40;;;;;;;;;;;;;;;15.53;59.80;96239.34;5024131;28;19963;-70
2023/03/23 09:27:06;;;;;;;;;;;;;;;15.53;58.36;96239.34;5020148;28;19917;-71
2023/03/23 09:29:31;;;;;;;;;;;;;;;15.44;59.59;96237.06;5025869;28;20278;-71
2023/03/23 09:31:56;;;;;;;;;;;;;;;15.43;58.87;96227.22;5026715;28;19917;-71
2023/03/23 09:34:22;;;;;;;;;;;;;;;15.64;58.41;96228.97;5002970;28;19963;-71
2023/03/23 09:36:48;;;;;;;;;;;;;;;15.85;59.13;96228.75;5022331;28;19918;-69
2023/03/23 09:39:13;;;;;;;;;;;;;;;16.03;58.52;96225.00;5018027;28;19940;-70
2023/03/23 09:41:59;;;;;;;;;;;;;;;16.28;57.48;96234.91;5023201;28;20370;-69
2023/03/23 09:44:36;;;;;;;;;;;;;;;16.42;57.34;96232.75;5017629;28;20016;-71
2023/03/23 09:47:25;;;;;;;;;;;;;;;16.49;57.50;96231.84;5022237;28;19947;-70
2023/03/23 09:49:54;;;;;;;;;;;;;;;16.56;59.43;96236.50;5019010;28;19917;-69
2023/03/23 09:52:20;;;;;;;;;;;;;;;16.35;61.33;96238.38;5018632;28;19991;-70
2023/03/23 09:54:45;;;;;;;;;;;;;;;16.21;61.64;96233.06;5012979;28;20015;-69
2023/03/23 09:57:32;;;;;;;;;;;;;;;16.29;59.46;96230.97;4999196;28;20004;-70
2023/03/23 10:00:04;;;;;;;;;;;;;;;16.69;55.49;96229.22;5015001;28;20362;-70
2023/03/23 10:02:38;;;;;;;;;;;;;;;16.55;55.58;96226.66;5005591;28;20362;-71
2023/03/23 10:05:22;;;;;;;;;;;;;;;16.61;55.19;96236.81;5001266;28;20309;-70
2023/03/23 10:07:47;;;;;;;;;;;;;;;16.89;54.74;96234.06;5006173;28;20311;-70
2023/03/23 10:10:13;;;;;;;;;;;;;;;16.87;55.09;96231.72;5000212;28;19918;-71
2023/03/23 10:12:44;;;;;;;;;;;;;;;16.98;54.16;96234.31;5004820;28;19970;-71
2023/03/23 10:15:13;;;;;;;;;;;;;;;16.94;53.82;96237.16;4999643;28;19918;-70
2023/03/23 10:18:05;;;;;;;;;;;;;;;16.89;54.01;96247.88;5010362;28;19985;-71
2023/03/23 10:20:40;;;;;;;;;;;;;;;17.04;54.03;96245.69;4985257;28;19917;-72
2023/03/23 10:23:12;;;;;;;;;;;;;;;17.02;54.15;96248.09;5017087;28;20004;-72
2023/03/23 10:25:42;;;;;;;;;;;;;;;16.76;53.32;96244.88;5021818;28;20495;-70
2023/03/23 10:28:12;;;;;;;;;;;;;;;16.59;53.90;96253.03;5017772;28;20012;-68
2023/03/23 10:30:42;;;;;;;;;;;;;;;16.60;53.58;96251.03;5021449;28;20701;-70
2023/03/23 10:33:30;;;;;;;;;;;;;;;16.74;52.57;96256.38;5017072;28;19917;-71
2023/03/23 10:36:00;;;;;;;;;;;;;;;16.58;52.00;96258.97;5022034;28;19940;-71
2023/03/23 10:38:46;;;;;;;;;;;;;;;17.34;50.45;96247.53;5017166;28;19917;-71
2023/03/23 10:41:18;;;;;;;;;;;;;;;17.51;49.63;96245.66;5005858;28;19921;-71
2023/03/23 10:43:44;;;;;;;;;;;;;;;17.52;49.88;96241.66;5020994;28;19927;-70
2023/03/23 10:46:26;;;;;;;;;;;;;;;17.63;49.93;96241.47;5016250;28;20052;-71
2023/03/23 10:48:52;;;;;;;;;;;;;;;17.88;48.97;96252.91;5003268;28;19983;-70
2023/03/23 10:51:21;;;;;;;;;;;;;;;18.11;47.88;96260.38;5015797;28;19932;-70
2023/03/23 10:53:50;;;;;;;;;;;;;;;17.99;48.47;96254.66;5019894;28;20382;-71
2023/03/23 10:56:22;;;;;;;;;;;;;;;17.40;49.58;96256.94;4996732;28;19957;-70
2023/03/23 10:58:47;;;;;;;;;;;;;;;17.83;48.76;96253.38;5012703;28;19921;-71
2023/03/23 11:01:12;;;;;;;;;;;;;;;17.83;48.93;96258.13;5007695;28;19917;-70
2023/03/23 11:03:48;;;;;;;;;;;;;;;18.03;48.80;96261.72;5003704;28;19918;-72
2023/03/23 11:06:22;;;;;;;;;;;;;;;17.89;48.20;96257.22;4997895;28;20017;-72
2023/03/23 11:08:50;;;;;;;;;;;;;;;17.86;48.36;96260.88;5005966;28;19921;-71
2023/03/23 11:11:21;;;;;;;;;;;;;;;17.93;48.04;96262.69;5005238;28;19921;-71
2023/03/23 11:13:47;;;;;;;;;;;;;;;17.66;49.28;96254.47;5018706;28;19917;-70
2023/03/23 11:16:33;;;;;;;;;;;;;;;17.70;49.11;96257.97;5022357;28;19917;-71
2023/03/23 11:18:59;;;;;;;;;;;;;;;17.65;49.15;96258.47;5024389;28;19924;-71
2023/03/23 11:21:27;;;;;;;;;;;;;;;17.53;49.33;96259.84;5004044;28;19921;-71
2023/03/23 11:23:58;;;;;;;;;;;;;;;17.76;48.46;96254.28;5024888;28;19917;-68
2023/03/23 11:26:28;;;;;;;;;;;;;;;17.83;47.58;96245.06;5020420;28;20425;-69
2023/03/23 11:28:58;;;;;;;;;;;;;;;17.96;46.81;96248.78;5025176;28;19928;-70
2023/03/23 11:31:31;;;;;;;;;;;;;;;17.77;47.09;96252.28;5019080;28;20379;-70
2023/03/23 11:34:03;;;;;;;;;;;;;;;17.53;46.99;96252.31;5024258;28;19917;-70
2023/03/23 11:36:30;;;;;;;;;;;;;;;17.61;46.64;96255.78;5023184;28;19928;-69
2023/03/23 11:38:57;;;;;;;;;;;;;;;17.63;47.31;96250.59;5024647;28;19928;-70
2023/03/23 11:41:23;;;;;;;;;;;;;;;17.77;48.59;96255.06;5020149;28;19925;-69
2023/03/23 11:43:51;;;;;;;;;;;;;;;17.48;50.20;96255.56;5025123;28;19923;-71
2023/03/23 11:46:29;;;;;;;;;;;;;;;17.15;50.57;96260.91;5019081;28;20059;-70
2023/03/23 11:49:00;;;;;;;;;;;;;;;17.13;50.42;96252.25;5024652;28;19925;-72
2023/03/23 11:51:37;;;;;;;;;;;;;;;17.10;49.71;96258.59;5021733;28;19963;-70
2023/03/23 11:54:05;;;;;;;;;;;;;;;17.25;52.93;96242.56;5018849;28;19922;-66
2023/03/23 11:56:34;;;;;;;;;;;;;;;17.27;50.63;96253.19;5005493;28;19917;-71
2023/03/23 11:59:00;;;;;;;;;;;;;;;17.29;50.04;96248.03;5009807;28;19921;-70
2023/03/23 12:01:28;;;;;;;;;;;;;;;17.38;49.87;96251.03;5011987;28;19975;-72
2023/03/23 12:04:00;;;;;;;;;;;;;;;17.64;46.80;96249.38;5025301;28;19968;-71
2023/03/23 12:06:44;;;;;;;;;;;;;;;17.94;47.25;96244.88;5022067;28;19917;-71
2023/03/23 12:09:25;;;;;;;;;;;;;;;18.24;45.88;96245.84;5022229;28;20409;-71
2023/03/23 12:12:06;;;;;;;;;;;;;;;18.38;45.26;96242.75;5026685;28;19917;-69
2023/03/23 12:14:36;;;;;;;;;;;;;;;18.33;45.03;96232.97;5024888;28;19918;-70
2023/03/23 12:17:07;;;;;;;;;;;;;;;18.33;44.71;96232.19;5023914;28;19917;-66
2023/03/23 12:19:51;;;;;;;;;;;;;;;18.54;43.81;96230.94;5004088;28;20386;-71
2023/03/23 12:22:22;;;;;;;;;;;;;;;18.71;43.71;96229.75;4985652;28;19917;-71
2023/03/23 12:24:56;;;;;;;;;;;;;;;18.82;42.29;96228.75;5024581;28;19924;-70
2023/03/23 12:27:40;;;;;;;;;;;;;;;18.64;42.37;96220.81;4999063;28;19928;-69
2023/03/23 12:30:23;;;;;;;;;;;;;;;18.57;42.80;96220.97;5006714;28;19940;-69
2023/03/23 12:33:04;;;;;;;;;;;;;;;18.59;42.38;96221.31;5023985;28;19932;-69
2023/03/23 12:35:29;;;;;;;;;;;;;;;18.60;42.38;96214.56;5024984;28;20063;-70
2023/03/23 12:38:27;;;;;;;;;;;;;;;18.55;43.44;96202.00;5025202;28;20011;-70
2023/03/23 12:41:01;;;;;;;;;;;;;;;19.21;42.21;96208.34;5023476;28;19917;-69
2023/03/23 12:43:26;;;;;;;;;;;;;;;18.91;41.81;96206.72;5020225;28;19917;-70
2023/03/23 12:46:04;;;;;;;;;;;;;;;18.96;42.30;96219.28;5022838;28;19924;-69
2023/03/23 12:48:33;;;;;;;;;;;;;;;18.56;43.10;96220.19;5021817;28;19947;-69
2023/03/23 12:51:05;;;;;;;;;;;;;;;18.92;42.45;96213.81;5023604;28;19918;-70